Latest Weather Observations for Thargomindah

IDQ60801

Issued at 7:05 pm EST Tuesday 21 October 2014 (issued every 30 minutes, with the page automatically refreshed every 10 minutes)

About weather observations | Map of weather stations | Latest weather observations for QLD | Other Formats
Station Details ID: 045025 Name: THARGOMINDAH AIRPORT Lat: -27.99 Lon: 143.81 Height: 130.89 m
Data from the previous 72 hours. | See also: Recent months at Thargomindah
Date/Time
EST
Temp
°C
App
Temp
°C
Dew
Point
Rel
Hum
%
Delta-T
°C
Wind Press
QNH
hPa
Press
MSL
hPa
Rain
since 9 am
mm
Dir
 
Spd
km/h
Gust
km/h
Spd
kts
Gust
kts
21/07:00pm 33.0 29.8 0.9 13 15.9 NNE 7 9 4 5 1018.5 - 0.0
21/06:30pm 34.1 30.7 1.8 13 16.4 ENE 9 13 5 7 1018.2 - 0.0
21/06:00pm 35.3 31.5 1.6 12 17.2 NE 11 17 6 9 1017.9 1017.2 0.0
21/05:30pm 35.7 31.9 1.9 12 17.4 ENE 11 17 6 9 1017.7 - 0.0
21/05:00pm 36.6 31.6 1.4 11 18.0 NNE 17 26 9 14 1017.6 - 0.0
21/04:30pm 36.4 32.9 1.2 11 18.0 SE 9 15 5 8 1017.6 - 0.0
21/04:00pm 36.9 31.6 1.6 11 18.2 NE 19 28 10 15 1017.6 - 0.0
21/03:30pm 37.3 34.3 1.9 11 18.4 WNW 7 13 4 7 1017.7 - 0.0
21/03:00pm 36.5 33.4 1.3 11 18.0 E 7 13 4 7 1018.0 1017.3 0.0
21/02:30pm 36.2 31.5 1.1 11 17.9 ENE 15 22 8 12 1018.3 - 0.0
21/02:00pm 36.0 32.3 2.1 12 17.5 ENE 11 24 6 13 1018.6 - 0.0
21/01:30pm 36.4 31.9 2.4 12 17.7 ENE 15 22 8 12 1019.3 - 0.0
21/01:00pm 35.8 32.8 2.0 12 17.4 ESE 7 15 4 8 1019.7 - 0.0
21/12:30pm 36.2 32.3 3.4 13 17.3 NNE 13 24 7 13 1020.1 - 0.0
21/12:00pm 35.6 30.9 3.0 13 17.0 NE 17 20 9 11 1020.8 1020.2 0.0
21/11:30am 34.7 30.4 3.3 14 16.4 N 15 28 8 15 1021.2 - 0.0
21/11:00am 34.7 30.0 3.3 14 16.4 N 17 30 9 16 1021.6 - 0.0
21/10:30am 35.0 30.2 4.5 15 16.3 N 19 33 10 18 1021.8 - 0.0
21/10:00am 34.3 28.4 4.0 15 16.0 N 24 35 13 19 1022.0 - 0.0
21/09:30am 33.2 27.7 4.0 16 15.3 N 22 28 12 15 1022.1 - 0.0
21/09:00am 31.2 26.3 4.1 18 14.0 NNE 19 26 10 14 1022.1 1021.5 0.0
21/08:30am 30.1 25.7 4.7 20 13.2 NNE 17 22 9 12 1022.1 - 0.0
21/08:00am 28.7 24.6 4.2 21 12.5 NNE 15 19 8 10 1021.9 - 0.0
21/07:30am 26.4 22.2 3.6 23 11.4 NNE 15 20 8 11 1021.6 - 0.0
21/07:00am 23.4 20.5 2.8 26 9.9 NNE 7 9 4 5 1021.1 - 0.0
21/06:30am 20.7 17.8 2.5 30 8.6 NE 7 7 4 4 1020.9 - 0.0
21/06:00am 18.6 16.9 2.0 33 7.6 ESE 0 0 0 0 1020.5 1019.9 0.0
21/05:30am 19.1 16.4 2.5 33 7.7 ESE 6 9 3 5 1020.0 - 0.0
21/05:00am 19.1 16.2 2.5 33 7.7 SE 7 9 4 5 1019.5 - 0.0
21/04:30am 19.8 16.9 1.7 30 8.3 ESE 6 7 3 4 1019.2 - 0.0
21/04:00am 19.9 17.4 1.8 30 8.3 E 4 7 2 4 1019.0 - 0.0
21/03:30am 20.5 17.1 1.9 29 8.6 E 9 9 5 5 1018.8 - 0.0
21/03:00am 20.9 17.5 1.7 28 8.9 ESE 9 11 5 6 1019.0 1018.3 0.0
21/02:30am 21.3 18.4 2.6 29 8.8 SE 7 11 4 6 1019.1 - 0.0
21/02:00am 21.8 19.1 3.9 31 8.7 E 7 9 4 5 1019.2 - 0.0
21/01:30am 22.1 19.2 1.7 26 9.5 NE 6 6 3 3 1019.3 - 0.0
21/01:00am 22.0 18.9 1.1 25 9.7 NE 7 9 4 5 1019.6 - 0.0
21/12:30am 24.3 21.3 1.9 23 10.7 ENE 7 9 4 5 1019.8 - 0.0
21/12:00am 24.7 21.6 1.6 22 11.0 ENE 7 9 4 5 1020.0 1019.4 0.0
 
Date/Time
EST
Temp
°C
App
Temp
°C
Dew
Point
Rel
Hum
%
Delta-T
°C
Wind Press
QNH
hPa
Press
MSL
hPa
Rain
since 9 am
mm
Dir
 
Spd
km/h
Gust
km/h
Spd
kts
Gust
kts
20/11:30pm 25.4 21.9 1.5 21 11.4 ENE 9 11 5 6 1020.0 - 0.0
20/11:00pm 26.1 22.7 2.1 21 11.6 ENE 9 9 5 5 1020.2 - 0.0
20/10:30pm 26.7 23.3 1.9 20 12.0 ENE 9 11 5 6 1020.2 - 0.0
20/10:00pm 27.3 23.5 1.7 19 12.4 E 11 13 6 7 1020.0 - 0.0
20/09:30pm 28.5 25.0 1.1 17 13.3 E 9 11 5 6 1020.0 - 0.0
20/09:00pm 29.4 25.9 1.0 16 13.8 E 9 11 5 6 1019.9 1019.3 0.0
20/08:30pm 28.6 24.8 -0.5 15 13.7 ENE 9 9 5 5 1019.6 - 0.0
20/08:00pm 30.4 26.8 0.9 15 14.4 ESE 9 9 5 5 1019.3 - 0.0
20/07:30pm 31.4 28.4 0.7 14 15.1 ESE 6 7 3 4 1019.0 - 0.0
20/07:00pm 32.4 29.2 0.5 13 15.7 E 7 9 4 5 1018.6 - 0.0
20/06:30pm 34.1 29.8 0.7 12 16.7 ESE 13 17 7 9 1018.3 - 0.0
20/06:00pm 35.0 30.6 0.2 11 17.3 ESE 13 19 7 10 1018.0 1017.3 0.0
20/05:30pm 34.9 30.1 0.1 11 17.3 E 15 22 8 12 1017.9 - 0.0
20/05:00pm 35.4 31.4 0.5 11 17.5 SSE 11 17 6 9 1017.9 - 0.0
20/04:30pm 35.9 32.0 0.9 11 17.7 ENE 11 20 6 11 1017.9 - 0.0
20/04:00pm 35.7 32.1 0.7 11 17.7 E 9 19 5 10 1018.1 - 0.0
20/03:30pm 35.8 30.7 0.8 11 17.7 E 17 26 9 14 1018.2 - 0.0
20/03:00pm 36.2 31.9 1.1 11 17.8 ESE 13 22 7 12 1018.8 1018.1 0.0
20/02:30pm 35.9 31.6 0.9 11 17.7 ESE 13 20 7 11 1019.0 - 0.0
20/02:00pm 35.6 30.5 0.6 11 17.6 SSE 17 26 9 14 1019.5 - 0.0
20/01:30pm 35.1 29.3 0.2 11 17.4 E 20 28 11 15 1020.0 - 0.0
20/01:00pm 34.5 30.2 1.0 12 16.9 SE 13 19 7 10 1020.5 - 0.0
20/12:30pm 33.7 28.0 0.4 12 16.5 SE 20 26 11 14 1020.8 - 0.0
20/12:00pm 34.4 30.3 2.0 13 16.5 NE 13 24 7 13 1021.3 1020.7 0.0
20/11:30am 33.9 28.4 0.5 12 16.6 ENE 19 24 10 13 1021.9 - 0.0
20/11:00am 33.6 30.5 1.4 13 16.2 NW 7 13 4 7 1022.2 - 0.0
20/10:30am 33.1 30.3 3.0 15 15.5 N 7 19 4 10 1022.5 - 0.0
20/10:00am 31.9 28.2 2.1 15 15.0 N 11 19 6 10 1023.0 - 0.0
20/09:30am 30.9 26.4 2.2 16 14.4 N 15 20 8 11 1023.2 - 0.0
20/09:00am 30.1 26.2 3.2 18 13.6 N 13 15 7 8 1023.3 1022.7 0.0
20/08:30am 28.7 24.2 4.2 21 12.5 NNE 17 22 9 12 1023.2 - 0.0
20/08:00am 27.1 22.9 3.6 22 11.8 NNE 15 22 8 12 1022.9 - 0.0
20/07:30am 24.4 21.7 3.7 26 10.2 ENE 7 11 4 6 1022.6 - 0.0
20/07:00am 21.6 18.8 2.3 28 9.1 E 6 7 3 4 1022.3 - 0.0
20/06:30am 19.3 15.9 1.8 31 8.0 E 9 11 5 6 1021.9 - 0.0
20/06:00am 17.9 14.5 1.8 34 7.3 E 9 11 5 6 1021.6 1021.0 0.0
20/05:30am 17.7 14.3 1.7 34 7.2 ESE 9 11 5 6 1021.2 - 0.0
20/05:00am 17.8 15.0 2.9 37 6.9 E 7 9 4 5 1020.8 - 0.0
20/04:30am 18.0 15.0 1.9 34 7.3 ENE 7 9 4 5 1020.4 - 0.0
20/04:00am 18.9 15.9 1.9 32 7.8 ENE 7 7 4 4 1020.2 - 0.0
20/03:30am 18.7 15.7 1.7 32 7.7 NE 7 9 4 5 1020.2 - 0.0
20/03:00am 19.0 15.9 1.5 31 7.9 ENE 7 9 4 5 1020.1 1019.5 0.0
20/02:30am 19.3 15.9 1.8 31 8.0 E 9 11 5 6 1020.2 - 0.0
20/02:00am 20.0 17.0 0.5 27 8.8 NNE 6 7 3 4 1020.3 - 0.0
20/01:30am 20.9 17.8 1.2 27 9.0 NNE 7 7 4 4 1020.4 - 0.0
20/01:00am 21.8 18.7 1.5 26 9.4 ENE 7 9 4 5 1020.5 - 0.0
20/12:30am 22.7 19.2 1.1 24 10.0 ENE 9 11 5 6 1020.8 - 0.0
20/12:00am 23.0 19.1 1.4 24 10.1 NE 11 11 6 6 1020.9 1020.3 0.0
 
Date/Time
EST
Temp
°C
App
Temp
°C
Dew
Point
Rel
Hum
%
Delta-T
°C
Wind Press
QNH
hPa
Press
MSL
hPa
Rain
since 9 am
mm
Dir
 
Spd
km/h
Gust
km/h
Spd
kts
Gust
kts
19/11:30pm 23.5 20.0 1.2 23 10.4 ENE 9 11 5 6 1021.2 - 0.0
19/11:00pm 23.9 20.3 0.9 22 10.7 NE 9 11 5 6 1021.4 - 0.0
19/10:30pm 23.7 20.3 -0.6 20 11.0 NNE 7 11 4 6 1021.3 - 0.0
19/10:00pm 24.8 21.3 1.0 21 11.2 NE 9 11 5 6 1021.3 - 0.0
19/09:30pm 24.5 20.9 0.8 21 11.1 ENE 9 11 5 6 1021.5 - 0.0
19/09:00pm 25.1 21.9 0.6 20 11.4 ENE 7 9 4 5 1021.2 1020.6 0.0
19/08:30pm 26.3 24.5 0.9 19 12.1 CALM 0 0 0 0 1020.9 - 0.0
19/08:00pm 27.4 25.8 2.5 20 12.3 CALM 0 0 0 0 1020.8 - 0.0
19/07:30pm 28.5 26.6 0.3 16 13.5 CALM 0 0 0 0 1020.4 - 0.0
19/07:00pm 30.5 28.5 0.0 14 14.7 CALM 0 0 0 0 1019.8 - 0.0
19/06:30pm 32.1 28.8 0.2 13 15.6 NNE 7 9 4 5 1019.3 - 0.0
19/06:00pm 32.9 29.6 -0.2 12 16.1 ENE 7 15 4 8 1018.8 1018.1 0.0
19/05:30pm 33.2 28.7 0.0 12 16.3 NE 13 24 7 13 1018.6 - 0.0
19/05:00pm 33.5 29.8 0.2 12 16.4 NE 9 17 5 9 1018.5 - 0.0
19/04:30pm 33.7 29.5 -0.8 11 16.8 ENE 11 15 6 8 1018.4 - 0.0
19/04:00pm 34.1 30.7 -0.5 11 16.9 N 7 17 4 9 1018.6 - 0.0
19/03:30pm 34.1 28.4 -0.5 11 16.9 NNE 19 26 10 14 1018.8 - 0.0
19/03:00pm 34.2 30.4 -0.4 11 16.9 ENE 9 17 5 9 1018.9 1018.2 0.0
19/02:30pm 33.3 28.7 -1.1 11 16.6 ENE 13 20 7 11 1019.4 - 0.0
19/02:00pm 33.1 28.5 -1.3 11 16.5 ENE 13 22 7 12 1019.8 - 0.0
19/01:30pm 33.6 28.6 -0.9 11 16.7 NE 15 32 8 17 1020.2 - 0.0
19/01:00pm 32.8 28.1 -1.5 11 16.4 N 13 28 7 15 1020.6 - 0.0
19/12:30pm 32.4 27.3 -1.8 11 16.2 NE 15 33 8 18 1021.2 - 0.0
19/12:00pm 32.6 29.2 -0.5 12 16.0 NE 7 13 4 7 1021.6 1021.0 0.0
19/11:30am 32.5 26.8 -0.5 12 16.0 N 19 32 10 17 1022.1 - 0.0
19/11:00am 31.4 25.6 -0.3 13 15.3 NNE 20 35 11 19 1022.5 - 0.0
19/10:30am 31.0 26.4 1.4 15 14.7 N 15 24 8 13 1023.0 - 0.0
19/10:00am 29.7 24.2 0.3 15 14.2 NNE 19 28 10 15 1023.3 - 0.0
19/09:30am 28.9 23.2 0.6 16 13.6 N 20 26 11 14 1023.3 - 0.0
19/09:00am 27.1 21.4 -0.9 16 12.9 NE 19 24 10 13 1023.4 1022.8 0.0
19/08:30am 26.8 21.8 1.3 19 12.3 NE 17 24 9 13 1023.2 - 0.0
19/08:00am 25.0 20.1 -0.2 19 11.6 NE 15 19 8 10 1023.2 - 0.0
19/07:30am 23.6 18.7 -0.6 20 11.0 ENE 15 17 8 9 1022.9 - 0.0
19/07:00am 21.3 16.4 -0.6 23 9.7 E 15 20 8 11 1022.6 - 0.0
19/06:30am 19.4 14.8 -1.1 25 8.9 E 13 17 7 9 1022.4 - 0.0
19/06:00am 18.0 13.2 -2.3 25 8.4 E 13 17 7 9 1022.0 1021.4 0.0
19/05:30am 18.1 13.3 -2.2 25 8.5 E 13 15 7 8 1021.6 - 0.0
19/05:00am 18.6 13.4 -2.9 23 8.9 E 15 20 8 11 1021.3 - 0.0
19/04:30am 17.2 12.6 -4.1 23 8.5 E 11 13 6 7 1021.0 - 0.0
19/04:00am 16.6 12.3 -5.2 22 8.4 E 9 11 5 6 1020.9 - 0.0
19/03:30am 17.5 12.8 -5.0 21 8.8 E 11 13 6 7 1020.9 - 0.0
19/03:00am 17.2 12.9 -5.3 21 8.7 E 9 11 5 6 1020.9 1020.3 0.0
19/02:30am 17.5 13.5 -5.7 20 9.0 ESE 7 9 4 5 1021.0 - 0.0
19/02:00am 18.4 13.7 -4.9 20 9.2 ESE 11 13 6 7 1021.1 - 0.0
19/01:30am 19.0 14.3 -5.1 19 9.6 ESE 11 13 6 7 1021.2 - 0.0
19/01:00am 19.4 14.7 -5.5 18 9.8 E 11 13 6 7 1021.4 - 0.0
19/12:30am 19.2 14.4 -5.7 18 9.8 E 11 13 6 7 1021.6 - 0.0
19/12:00am 19.2 14.9 -5.0 19 9.6 ESE 9 11 5 6 1021.9 1021.3 0.0
 
Date/Time
EST
Temp
°C
App
Temp
°C
Dew
Point
Rel
Hum
%
Delta-T
°C
Wind Press
QNH
hPa
Press
MSL
hPa
Rain
since 9 am
mm
Dir
 
Spd
km/h
Gust
km/h
Spd
kts
Gust
kts
18/11:30pm 19.8 15.5 -5.2 18 10.0 ESE 9 11 5 6 1022.0 - 0.0
18/11:00pm 20.7 16.3 -6.0 16 10.6 ESE 9 11 5 6 1022.1 - 0.0
18/10:30pm 21.6 17.2 -6.1 15 11.1 SE 9 13 5 7 1022.1 - 0.0
18/10:00pm 22.0 17.6 -5.8 15 11.2 SE 9 11 5 6 1022.2 - 0.0
18/09:30pm 22.3 18.3 -5.6 15 11.3 ESE 7 9 4 5 1022.1 - 0.0
18/09:00pm 23.9 19.6 -5.2 14 12.1 SE 9 9 5 5 1022.1 1021.5 0.0
18/08:30pm 24.6 20.6 -5.6 13 12.5 ESE 7 9 4 5 1021.9 - 0.0
18/08:00pm 24.4 20.3 -6.8 12 12.6 ESE 7 9 4 5 1021.4 - 0.0
18/07:30pm 25.4 21.2 -7.2 11 13.2 ESE 7 9 4 5 1021.0 - 0.0

Other Formats:

Comma delimited format used in spreadsheet applications
http://www.bom.gov.au/fwo/IDQ60801/IDQ60801.95492.axf

JavaScript Object Notation format (JSON) in row-major order
http://www.bom.gov.au/fwo/IDQ60801/IDQ60801.95492.json